createdAt,value
2018-09-29T00:01:04.042Z,8.60
2018-09-29T00:03:32.222Z,8.60
2018-09-29T00:06:00.275Z,8.60
2018-09-29T00:08:28.356Z,8.60
2018-09-29T00:10:56.440Z,8.60
2018-09-29T00:13:24.477Z,8.60
2018-09-29T00:15:52.543Z,8.70
2018-09-29T00:18:20.631Z,8.70
2018-09-29T00:20:48.728Z,8.70
2018-09-29T00:23:17.305Z,8.80
2018-09-29T00:25:45.346Z,8.70
2018-09-29T00:28:13.415Z,8.70
2018-09-29T00:30:41.488Z,8.70
2018-09-29T00:33:09.548Z,8.60
2018-09-29T00:35:37.653Z,8.60
2018-09-29T00:38:05.708Z,8.60
2018-09-29T00:40:33.779Z,8.50
2018-09-29T00:43:01.860Z,8.40
2018-09-29T00:45:30.012Z,8.50
2018-09-29T00:47:58.060Z,8.40
2018-09-29T00:50:26.178Z,8.40
2018-09-29T00:52:54.302Z,8.30
2018-09-29T00:55:22.385Z,8.30
2018-09-29T00:57:50.484Z,8.30
2018-09-29T01:00:18.665Z,8.20
2018-09-29T01:02:46.721Z,8.30
2018-09-29T01:05:14.950Z,8.20
2018-09-29T01:07:43.061Z,8.20
2018-09-29T01:10:11.104Z,8.20
2018-09-29T01:12:39.150Z,8.20
2018-09-29T01:15:07.251Z,8.20
2018-09-29T01:17:35.316Z,8.20
2018-09-29T01:20:03.417Z,8.10
2018-09-29T01:22:31.500Z,8.10
2018-09-29T01:24:59.591Z,8.10
2018-09-29T01:27:27.699Z,8.00
2018-09-29T01:29:55.759Z,7.90
2018-09-29T01:32:23.806Z,7.80
2018-09-29T01:34:51.875Z,7.90
2018-09-29T01:37:19.943Z,7.80
2018-09-29T01:39:48.004Z,7.90
2018-09-29T01:42:16.079Z,7.90
2018-09-29T01:44:44.249Z,7.80
2018-09-29T01:47:12.363Z,7.90
2018-09-29T01:49:40.411Z,7.90
2018-09-29T01:52:08.488Z,7.80
2018-09-29T01:54:36.542Z,7.80
2018-09-29T01:57:04.625Z,7.80
2018-09-29T01:59:32.684Z,7.80
2018-09-29T02:02:00.773Z,7.70
2018-09-29T02:04:28.830Z,7.70
2018-09-29T02:06:56.968Z,7.60
2018-09-29T02:09:25.010Z,7.60
2018-09-29T02:11:53.058Z,7.50
2018-09-29T02:14:21.102Z,7.40
2018-09-29T02:16:49.184Z,7.40
2018-09-29T02:19:17.225Z,7.40
2018-09-29T02:21:45.296Z,7.40
2018-09-29T02:24:13.355Z,7.30
2018-09-29T02:26:41.412Z,7.40
2018-09-29T02:29:09.465Z,7.50
2018-09-29T02:31:37.539Z,7.50
2018-09-29T02:34:05.596Z,7.40
2018-09-29T02:36:33.678Z,7.40
2018-09-29T02:39:01.748Z,7.40
2018-09-29T02:41:29.844Z,7.40
2018-09-29T02:43:57.901Z,7.40
2018-09-29T02:46:26.033Z,7.40
2018-09-29T02:48:54.138Z,7.40
2018-09-29T02:51:22.224Z,5.50
2018-09-29T02:53:50.268Z,7.30
2018-09-29T02:56:18.338Z,7.30
2018-09-29T02:58:46.414Z,7.30
2018-09-29T03:01:14.508Z,7.30
2018-09-29T03:03:42.608Z,7.30
2018-09-29T03:06:10.651Z,7.30
2018-09-29T03:08:38.745Z,7.30
2018-09-29T03:11:06.848Z,7.20
2018-09-29T03:13:34.896Z,7.30
2018-09-29T03:16:02.959Z,7.20
2018-09-29T03:18:31.061Z,7.20
2018-09-29T03:20:59.134Z,7.20
2018-09-29T03:23:27.195Z,7.10
2018-09-29T03:25:55.265Z,7.20
2018-09-29T03:28:23.378Z,7.20
2018-09-29T03:30:51.456Z,7.20
2018-09-29T03:33:19.670Z,7.20
2018-09-29T03:35:47.759Z,7.20
2018-09-29T03:38:15.839Z,7.20
2018-09-29T03:40:43.927Z,7.20
2018-09-29T03:43:12.016Z,7.20
2018-09-29T03:45:40.109Z,7.10
2018-09-29T03:48:08.179Z,7.00
2018-09-29T03:50:36.250Z,7.00
2018-09-29T03:53:04.404Z,7.00
2018-09-29T03:55:32.499Z,7.10
2018-09-29T03:58:00.658Z,7.00
2018-09-29T04:00:28.727Z,7.00
2018-09-29T04:02:56.900Z,7.00
2018-09-29T04:05:24.988Z,7.00
2018-09-29T04:07:53.067Z,7.00
2018-09-29T04:10:21.487Z,7.00
2018-09-29T04:12:49.572Z,7.00
2018-09-29T04:15:17.639Z,7.00
2018-09-29T04:17:45.690Z,6.90
2018-09-29T04:20:13.752Z,6.90
2018-09-29T04:22:41.825Z,6.90
2018-09-29T04:25:09.861Z,6.80
2018-09-29T04:27:37.947Z,6.80
2018-09-29T04:30:06.196Z,6.80
2018-09-29T04:32:34.336Z,6.80
2018-09-29T04:35:02.408Z,6.70
2018-09-29T04:37:30.453Z,6.70
2018-09-29T04:39:58.491Z,6.70
2018-09-29T04:42:26.575Z,6.70
2018-09-29T04:44:54.676Z,6.70
2018-09-29T04:47:22.769Z,6.70
2018-09-29T04:49:50.812Z,6.60
2018-09-29T04:52:18.903Z,6.60
2018-09-29T04:54:46.948Z,6.60
2018-09-29T04:57:14.994Z,6.50
2018-09-29T04:59:43.112Z,6.50
2018-09-29T05:02:11.139Z,6.40
2018-09-29T05:04:39.244Z,6.30
2018-09-29T05:07:07.954Z,6.40
2018-09-29T05:09:36.020Z,6.50
2018-09-29T05:12:04.075Z,6.50
2018-09-29T05:14:32.136Z,6.50
2018-09-29T05:17:00.200Z,6.50
2018-09-29T05:19:28.295Z,6.60
2018-09-29T05:21:56.449Z,6.60
2018-09-29T05:24:24.520Z,6.60
2018-09-29T05:26:52.572Z,6.50
2018-09-29T05:29:20.649Z,6.50
2018-09-29T05:31:48.713Z,6.50
2018-09-29T05:34:16.809Z,6.50
2018-09-29T05:36:44.885Z,6.60
2018-09-29T05:39:12.953Z,6.50
2018-09-29T05:41:41.106Z,6.50
2018-09-29T05:44:09.584Z,6.60
2018-09-29T05:46:37.626Z,6.70
2018-09-29T05:49:05.692Z,6.70
2018-09-29T05:51:33.748Z,6.80
2018-09-29T05:54:01.857Z,6.80
2018-09-29T05:56:29.906Z,6.80
2018-09-29T05:58:57.975Z,6.80
2018-09-29T06:04:00.664Z,6.80
2018-09-29T06:06:30.630Z,6.80
2018-09-29T06:08:58.963Z,6.90
2018-09-29T06:11:27.087Z,6.90
2018-09-29T06:13:55.255Z,7.10
2018-09-29T06:16:23.529Z,7.10
2018-09-29T06:18:51.584Z,7.10
2018-09-29T06:21:19.637Z,7.10
2018-09-29T06:23:47.661Z,7.20
2018-09-29T06:26:15.816Z,7.50
2018-09-29T06:28:43.953Z,7.80
2018-09-29T06:31:12.039Z,8.10
2018-09-29T06:33:40.412Z,8.40
2018-09-29T06:36:15.485Z,8.60
2018-09-29T06:38:43.560Z,8.90
2018-09-29T06:41:11.638Z,9.30
2018-09-29T06:43:39.784Z,9.40
2018-09-29T06:46:07.889Z,10.00
2018-09-29T06:48:35.950Z,10.50
2018-09-29T06:51:04.160Z,11.00
2018-09-29T06:53:32.200Z,10.90
2018-09-29T06:56:00.292Z,10.80
2018-09-29T06:58:28.355Z,10.70
2018-09-29T07:00:56.449Z,10.40
2018-09-29T07:03:24.526Z,10.20
2018-09-29T07:05:52.632Z,10.10
2018-09-29T07:08:20.687Z,9.70
2018-09-29T07:10:48.768Z,9.60
2018-09-29T07:13:16.944Z,9.50
2018-09-29T07:15:45.033Z,9.50
2018-09-29T07:18:13.110Z,9.50
2018-09-29T07:20:41.215Z,9.50
2018-09-29T07:23:09.288Z,9.40
2018-09-29T07:25:37.368Z,9.30
2018-09-29T07:28:05.412Z,9.40
2018-09-29T07:30:33.497Z,9.30
2018-09-29T07:33:01.560Z,9.20
2018-09-29T07:35:29.643Z,9.40
2018-09-29T07:37:57.710Z,9.40
2018-09-29T07:40:25.810Z,9.40
2018-09-29T07:42:53.936Z,9.50
2018-09-29T07:45:22.016Z,9.60
2018-09-29T07:47:50.107Z,9.60
2018-09-29T07:50:18.194Z,9.90
2018-09-29T07:52:46.234Z,10.00
2018-09-29T07:55:14.331Z,10.10
2018-09-29T07:57:42.414Z,10.10
2018-09-29T08:00:10.478Z,10.20
2018-09-29T08:02:38.550Z,10.30
2018-09-29T08:05:06.845Z,10.40
2018-09-29T08:07:35.012Z,10.50
2018-09-29T08:10:03.149Z,10.60
2018-09-29T08:12:31.320Z,10.70
2018-09-29T08:14:59.333Z,10.80
2018-09-29T08:17:27.467Z,10.80
2018-09-29T08:19:55.541Z,10.80
2018-09-29T08:22:23.654Z,11.00
2018-09-29T08:24:51.738Z,11.00
2018-09-29T08:27:19.928Z,11.10
2018-09-29T08:29:48.028Z,11.10
2018-09-29T08:32:16.156Z,11.00
2018-09-29T08:34:44.180Z,11.00
2018-09-29T08:37:12.280Z,11.00
2018-09-29T08:39:40.331Z,11.10
2018-09-29T08:42:08.399Z,11.30
2018-09-29T08:44:36.502Z,11.40
2018-09-29T08:47:04.590Z,11.50
2018-09-29T08:49:32.667Z,11.60
2018-09-29T08:52:00.738Z,11.80
2018-09-29T08:54:28.841Z,11.80
2018-09-29T08:56:57.024Z,11.90
2018-09-29T08:59:25.119Z,12.00
2018-09-29T09:01:53.384Z,12.00
2018-09-29T09:04:21.477Z,12.10
2018-09-29T09:06:49.527Z,12.30
2018-09-29T09:09:17.605Z,12.40
2018-09-29T09:11:45.675Z,12.40
2018-09-29T09:14:13.736Z,12.40
2018-09-29T09:16:41.879Z,12.40
2018-09-29T09:19:09.956Z,12.50
2018-09-29T09:21:38.017Z,12.60
2018-09-29T09:24:06.246Z,12.70
2018-09-29T09:26:34.341Z,12.60
2018-09-29T09:29:02.541Z,12.50
2018-09-29T09:31:30.691Z,12.40
2018-09-29T09:33:58.776Z,12.50
2018-09-29T09:36:26.898Z,12.60
2018-09-29T09:38:55.012Z,12.70
2018-09-29T09:41:23.096Z,12.70
2018-09-29T09:43:51.168Z,12.70
2018-09-29T09:46:19.256Z,12.70
2018-09-29T09:48:47.352Z,12.90
2018-09-29T09:51:15.420Z,13.00
2018-09-29T09:53:44.340Z,13.00
2018-09-29T09:56:12.467Z,12.90
2018-09-29T09:58:40.544Z,13.00
2018-09-29T10:01:14.122Z,13.10
2018-09-29T10:03:42.191Z,13.20
2018-09-29T10:06:10.275Z,13.30
2018-09-29T10:08:41.255Z,13.40
2018-09-29T10:11:09.325Z,13.50
2018-09-29T10:13:37.430Z,13.40
2018-09-29T10:16:05.709Z,13.40
2018-09-29T10:18:33.820Z,13.60
2018-09-29T10:21:01.887Z,13.60
2018-09-29T10:23:29.975Z,13.50
2018-09-29T10:25:58.131Z,13.50
2018-09-29T10:28:26.231Z,13.40
2018-09-29T10:30:54.304Z,13.60
2018-09-29T10:33:22.381Z,13.70
2018-09-29T10:35:50.445Z,13.90
2018-09-29T10:38:18.558Z,14.10
2018-09-29T10:40:46.901Z,14.10
2018-09-29T10:43:15.325Z,14.20
2018-09-29T10:45:43.566Z,14.20
2018-09-29T10:48:11.690Z,14.40
2018-09-29T10:50:39.808Z,14.50
2018-09-29T10:53:07.913Z,14.60
2018-09-29T10:55:35.983Z,14.60
2018-09-29T10:58:04.139Z,14.60
2018-09-29T11:00:32.206Z,14.60
2018-09-29T11:03:00.284Z,14.80
2018-09-29T11:05:28.434Z,14.80
2018-09-29T11:07:56.534Z,14.70
2018-09-29T11:10:24.591Z,14.60
2018-09-29T11:12:52.705Z,14.40
2018-09-29T11:15:20.790Z,14.30
2018-09-29T11:17:48.948Z,14.20
2018-09-29T11:20:17.083Z,14.30
2018-09-29T11:22:45.159Z,14.40
2018-09-29T11:25:13.269Z,14.40
2018-09-29T11:27:41.460Z,14.60
2018-09-29T11:30:09.540Z,14.70
2018-09-29T11:32:37.747Z,14.70
2018-09-29T11:35:06.113Z,14.60
2018-09-29T11:37:34.254Z,14.70
2018-09-29T11:40:02.384Z,14.90
2018-09-29T11:42:30.447Z,15.10
2018-09-29T11:44:58.657Z,15.40
2018-09-29T11:47:26.730Z,15.60
2018-09-29T11:49:54.879Z,15.60
2018-09-29T11:52:22.936Z,15.50
2018-09-29T11:54:51.040Z,15.50
2018-09-29T11:57:19.328Z,15.40
2018-09-29T11:59:47.403Z,15.50
2018-09-29T12:02:15.562Z,15.70
2018-09-29T12:04:43.612Z,15.80
2018-09-29T12:07:11.785Z,16.10
2018-09-29T12:09:39.804Z,16.00
2018-09-29T12:12:07.932Z,15.80
2018-09-29T12:14:36.129Z,15.70
2018-09-29T12:17:04.195Z,15.60
2018-09-29T12:19:32.257Z,15.70
2018-09-29T12:22:00.415Z,15.40
2018-09-29T12:24:28.523Z,15.30
2018-09-29T12:26:56.623Z,15.30
2018-09-29T12:29:24.773Z,15.20
2018-09-29T12:31:52.833Z,15.40
2018-09-29T12:34:20.943Z,15.70
2018-09-29T12:36:49.254Z,15.70
2018-09-29T12:39:17.419Z,15.80
2018-09-29T12:41:45.476Z,15.90
2018-09-29T12:44:13.565Z,16.00
2018-09-29T12:46:41.639Z,15.90
2018-09-29T12:49:09.721Z,16.00
2018-09-29T12:51:37.885Z,16.10
2018-09-29T12:54:06.077Z,16.20
2018-09-29T12:56:34.154Z,16.00
2018-09-29T12:59:02.338Z,16.10
2018-09-29T13:01:30.428Z,15.80
2018-09-29T13:03:58.488Z,15.60
2018-09-29T13:06:26.596Z,15.10
2018-09-29T13:08:54.719Z,14.90
2018-09-29T13:11:22.934Z,14.80
2018-09-29T13:13:51.043Z,15.00
2018-09-29T13:16:19.137Z,14.90
2018-09-29T13:18:47.231Z,14.80
2018-09-29T13:21:15.326Z,14.70
2018-09-29T13:23:43.416Z,14.90
2018-09-29T13:26:11.504Z,15.00
2018-09-29T13:28:39.575Z,15.10
2018-09-29T13:31:07.832Z,15.20
2018-09-29T13:33:35.929Z,15.30
2018-09-29T13:36:04.001Z,15.40
2018-09-29T13:38:32.093Z,15.50
2018-09-29T13:41:00.264Z,15.40
2018-09-29T13:43:28.323Z,15.50
2018-09-29T13:45:56.453Z,15.50
2018-09-29T13:48:24.560Z,15.40
2018-09-29T13:50:52.700Z,15.50
2018-09-29T13:53:20.790Z,15.40
2018-09-29T13:55:48.877Z,15.60
2018-09-29T13:58:16.959Z,15.60
2018-09-29T14:00:45.090Z,15.80
2018-09-29T14:03:13.208Z,15.80
2018-09-29T14:05:41.330Z,15.80
2018-09-29T14:08:09.420Z,15.50
2018-09-29T14:10:37.529Z,15.50
2018-09-29T14:13:05.919Z,15.30
2018-09-29T14:15:34.037Z,15.20
2018-09-29T14:18:02.165Z,15.10
2018-09-29T14:20:30.252Z,14.90
2018-09-29T14:22:58.286Z,14.80
2018-09-29T14:25:26.399Z,14.70
2018-09-29T14:27:54.838Z,14.70
2018-09-29T14:30:22.994Z,14.60
2018-09-29T14:32:51.156Z,14.70
2018-09-29T14:35:19.277Z,14.70
2018-09-29T14:37:47.339Z,14.80
2018-09-29T14:40:15.452Z,14.70
2018-09-29T14:42:43.518Z,14.80
2018-09-29T14:45:11.693Z,14.90
2018-09-29T14:47:39.718Z,14.90
2018-09-29T14:50:08.005Z,14.90
2018-09-29T14:52:36.312Z,14.80
2018-09-29T14:55:04.684Z,14.90
2018-09-29T14:57:33.017Z,15.00
2018-09-29T15:00:01.130Z,15.00
2018-09-29T15:02:29.325Z,14.80
2018-09-29T15:04:57.793Z,14.80
2018-09-29T15:07:25.984Z,14.80
2018-09-29T15:09:54.304Z,14.70
2018-09-29T15:12:22.985Z,14.60
2018-09-29T15:14:51.084Z,14.70
2018-09-29T15:17:19.190Z,14.50
2018-09-29T15:19:47.297Z,14.40
2018-09-29T15:22:15.377Z,14.30
2018-09-29T15:24:43.540Z,14.20
2018-09-29T15:27:11.677Z,14.10
2018-09-29T15:29:39.776Z,14.00
2018-09-29T15:32:08.099Z,14.00
2018-09-29T15:34:36.171Z,14.00
2018-09-29T15:37:04.283Z,14.00
2018-09-29T15:39:32.360Z,14.00
2018-09-29T15:42:00.448Z,14.10
2018-09-29T15:44:28.514Z,14.10
2018-09-29T15:46:56.589Z,14.20
2018-09-29T15:49:24.646Z,14.20
2018-09-29T15:51:52.766Z,14.20
2018-09-29T15:54:20.839Z,14.10
2018-09-29T15:56:48.902Z,14.10
2018-09-29T15:59:17.204Z,14.10
2018-09-29T16:01:45.374Z,14.00
2018-09-29T16:04:13.719Z,13.90
2018-09-29T16:06:41.823Z,14.00
2018-09-29T16:09:10.681Z,13.90
2018-09-29T16:11:39.491Z,13.90
2018-09-29T16:14:07.584Z,13.90
2018-09-29T16:16:35.807Z,13.80
2018-09-29T16:19:03.927Z,13.70
2018-09-29T16:21:32.085Z,13.70
2018-09-29T16:24:00.156Z,13.60
2018-09-29T16:26:28.239Z,13.50
2018-09-29T16:28:56.485Z,13.40
2018-09-29T16:31:24.845Z,13.30
2018-09-29T16:33:53.237Z,13.30
2018-09-29T16:36:21.289Z,13.20
2018-09-29T16:38:49.338Z,13.10
2018-09-29T16:41:17.409Z,13.10
2018-09-29T16:43:45.554Z,13.10
2018-09-29T16:46:13.624Z,13.00
2018-09-29T16:48:41.788Z,12.90
2018-09-29T16:51:09.929Z,12.90
2018-09-29T16:53:38.028Z,12.90
2018-09-29T16:56:06.232Z,12.80
2018-09-29T16:58:34.345Z,12.70
2018-09-29T17:01:02.435Z,12.60
2018-09-29T17:03:30.621Z,12.50
2018-09-29T17:05:58.640Z,12.50
2018-09-29T17:08:26.725Z,12.50
2018-09-29T17:10:54.796Z,12.40
2018-09-29T17:13:22.905Z,12.40
2018-09-29T17:15:51.098Z,12.30
2018-09-29T17:18:19.286Z,12.30
2018-09-29T17:20:47.366Z,12.20
2018-09-29T17:23:15.425Z,12.10
2018-09-29T17:25:43.498Z,12.10
2018-09-29T17:28:11.586Z,12.00
2018-09-29T17:30:39.652Z,12.00
2018-09-29T17:33:07.817Z,11.90
2018-09-29T17:35:35.909Z,11.90
2018-09-29T17:38:04.028Z,11.80
2018-09-29T17:40:32.097Z,11.80
2018-09-29T17:43:00.213Z,11.80
2018-09-29T17:45:28.472Z,11.70
2018-09-29T17:47:56.564Z,11.70
2018-09-29T17:50:24.658Z,11.60
2018-09-29T17:52:53.204Z,11.60
2018-09-29T17:55:21.249Z,11.50
2018-09-29T17:57:49.367Z,11.50
2018-09-29T18:00:17.491Z,11.50
2018-09-29T18:02:45.645Z,11.50
2018-09-29T18:05:13.819Z,11.40
2018-09-29T18:07:41.944Z,11.40
2018-09-29T18:10:10.061Z,11.30
2018-09-29T18:12:38.389Z,11.30
2018-09-29T18:15:06.480Z,11.20
2018-09-29T18:17:34.630Z,11.20
2018-09-29T18:20:02.834Z,11.20
2018-09-29T18:22:31.022Z,11.10
2018-09-29T18:24:59.126Z,11.10
2018-09-29T18:27:27.256Z,11.00
2018-09-29T18:29:55.368Z,11.00
2018-09-29T18:32:23.458Z,10.90
2018-09-29T18:34:51.552Z,11.00
2018-09-29T18:37:19.708Z,11.00
2018-09-29T18:39:47.798Z,11.00
2018-09-29T18:42:15.880Z,11.00
2018-09-29T18:44:44.057Z,11.00
2018-09-29T18:47:12.241Z,11.00
2018-09-29T18:49:40.406Z,11.00
2018-09-29T18:52:08.801Z,10.90
2018-09-29T18:54:36.956Z,10.80
2018-09-29T18:57:05.107Z,10.80
2018-09-29T18:59:33.207Z,10.80
2018-09-29T19:02:01.343Z,10.80
2018-09-29T19:04:29.416Z,10.80
2018-09-29T19:06:57.505Z,10.70
2018-09-29T19:09:25.620Z,10.70
2018-09-29T19:11:53.781Z,10.80
2018-09-29T19:14:21.890Z,10.70
2018-09-29T19:16:49.997Z,10.80
2018-09-29T19:19:18.215Z,10.70
2018-09-29T19:21:46.340Z,10.70
2018-09-29T19:24:14.461Z,10.60
2018-09-29T19:26:42.519Z,10.60
2018-09-29T19:29:10.642Z,10.60
2018-09-29T19:31:38.689Z,10.60
2018-09-29T19:34:06.841Z,10.60
2018-09-29T19:36:34.920Z,10.60
2018-09-29T19:39:03.698Z,10.60
2018-09-29T19:41:31.774Z,10.50
2018-09-29T19:43:59.915Z,10.50
2018-09-29T19:46:28.102Z,10.50
2018-09-29T19:48:56.292Z,10.50
2018-09-29T19:51:24.459Z,10.50
2018-09-29T19:53:52.563Z,10.50
2018-09-29T19:56:20.696Z,10.40
2018-09-29T19:58:48.799Z,10.40
2018-09-29T20:01:16.904Z,10.40
2018-09-29T20:03:45.041Z,10.40
2018-09-29T20:06:13.175Z,10.40
2018-09-29T20:08:41.264Z,10.30
2018-09-29T20:11:09.375Z,10.30
2018-09-29T20:13:37.480Z,10.40
2018-09-29T20:16:05.761Z,10.30
2018-09-29T20:18:33.887Z,10.20
2018-09-29T20:21:02.034Z,10.20
2018-09-29T20:23:30.193Z,10.20
2018-09-29T20:25:58.300Z,10.20
2018-09-29T20:28:26.376Z,10.20
2018-09-29T20:30:54.481Z,10.10
2018-09-29T20:33:22.568Z,10.10
2018-09-29T20:35:50.712Z,10.20
2018-09-29T20:38:18.766Z,10.10
2018-09-29T20:40:46.882Z,10.10
2018-09-29T20:43:15.013Z,10.10
2018-09-29T20:45:43.100Z,10.00
2018-09-29T20:48:11.182Z,10.10
2018-09-29T20:50:39.295Z,10.10
2018-09-29T20:53:07.388Z,10.10
2018-09-29T20:55:35.470Z,10.10
2018-09-29T20:58:03.588Z,10.10
2018-09-29T21:00:31.697Z,10.10
2018-09-29T21:02:59.841Z,10.00
2018-09-29T21:05:27.964Z,10.00
2018-09-29T21:07:56.034Z,10.00
2018-09-29T21:10:24.131Z,10.00
2018-09-29T21:12:52.294Z,10.00
2018-09-29T21:15:20.316Z,10.00
2018-09-29T21:17:48.447Z,10.00
2018-09-29T21:20:16.528Z,9.90
2018-09-29T21:22:44.653Z,9.90
2018-09-29T21:25:12.739Z,9.80
2018-09-29T21:27:40.844Z,9.80
2018-09-29T21:30:08.935Z,9.80
2018-09-29T21:32:36.984Z,9.80
2018-09-29T21:35:05.068Z,9.70
2018-09-29T21:37:33.182Z,9.80
2018-09-29T21:40:01.374Z,9.70
2018-09-29T21:42:29.619Z,9.70
2018-09-29T21:44:57.628Z,9.80
2018-09-29T21:47:25.708Z,9.70
2018-09-29T21:49:53.797Z,9.60
2018-09-29T21:52:21.893Z,9.60
2018-09-29T21:54:49.945Z,9.70
2018-09-29T21:57:18.035Z,9.60
2018-09-29T21:59:46.060Z,9.70
2018-09-29T22:02:14.131Z,9.60
2018-09-29T22:04:42.278Z,9.60
2018-09-29T22:07:10.362Z,9.60
2018-09-29T22:09:38.673Z,9.60
2018-09-29T22:12:07.129Z,9.60
2018-09-29T22:14:35.309Z,9.50
2018-09-29T22:17:03.578Z,9.40
2018-09-29T22:19:31.715Z,9.30
2018-09-29T22:22:00.017Z,9.30
2018-09-29T22:24:28.341Z,9.30
2018-09-29T22:26:56.724Z,9.20
2018-09-29T22:31:59.630Z,9.20
2018-09-29T22:34:27.909Z,9.20
2018-09-29T22:36:56.184Z,9.20
2018-09-29T22:39:24.593Z,9.30
2018-09-29T22:41:52.976Z,9.40
2018-09-29T22:44:21.219Z,9.30
2018-09-29T22:46:49.487Z,9.30
2018-09-29T22:49:17.816Z,9.10
2018-09-29T22:51:45.998Z,9.10
2018-09-29T22:54:14.198Z,9.00
2018-09-29T22:56:42.513Z,9.10
2018-09-29T22:59:10.729Z,9.00
2018-09-29T23:01:38.869Z,9.00
2018-09-29T23:04:07.145Z,9.00
2018-09-29T23:06:35.309Z,8.90
2018-09-29T23:09:03.901Z,8.90
2018-09-29T23:11:32.216Z,8.90
2018-09-29T23:14:00.527Z,8.90
2018-09-29T23:16:28.640Z,8.90
2018-09-29T23:18:56.743Z,8.90
2018-09-29T23:21:24.869Z,8.90
2018-09-29T23:23:52.981Z,8.80
2018-09-29T23:26:21.084Z,8.80
2018-09-29T23:28:49.173Z,8.90
2018-09-29T23:31:17.208Z,9.00
2018-09-29T23:33:45.448Z,9.00
2018-09-29T23:36:13.659Z,9.00
2018-09-29T23:38:41.812Z,9.00
2018-09-29T23:41:09.903Z,9.00
2018-09-29T23:43:38.310Z,9.00
2018-09-29T23:46:06.487Z,9.10
2018-09-29T23:48:34.539Z,9.00
2018-09-29T23:51:02.684Z,9.00
2018-09-29T23:53:30.905Z,9.00
2018-09-29T23:55:59.092Z,9.00
2018-09-29T23:58:27.805Z,9.00
